sensor_id;sensor_type;location;lat;lon;timestamp;P1;durP1;ratioP1;P2;durP2;ratioP2
59169;SDS011;52474;52.236;5.114;2022-08-19T00:01:25;7.75;;;5.25;;
59169;SDS011;52474;52.236;5.114;2022-08-19T00:03:55;6.18;;;5.05;;
59169;SDS011;52474;52.236;5.114;2022-08-19T00:06:25;7.38;;;4.90;;
59169;SDS011;52474;52.236;5.114;2022-08-19T00:08:52;4.47;;;3.72;;
59169;SDS011;52474;52.236;5.114;2022-08-19T00:11:18;4.50;;;3.30;;
59169;SDS011;52474;52.236;5.114;2022-08-19T00:13:44;4.47;;;3.65;;
59169;SDS011;52474;52.236;5.114;2022-08-19T00:16:14;4.60;;;3.10;;
59169;SDS011;52474;52.236;5.114;2022-08-19T00:18:40;2.70;;;2.40;;
59169;SDS011;52474;52.236;5.114;2022-08-19T00:21:06;3.75;;;3.00;;
59169;SDS011;52474;52.236;5.114;2022-08-19T00:23:34;5.32;;;4.32;;
59169;SDS011;52474;52.236;5.114;2022-08-19T00:26:02;10.88;;;5.22;;
59169;SDS011;52474;52.236;5.114;2022-08-19T00:28:31;8.00;;;3.10;;
59169;SDS011;52474;52.236;5.114;2022-08-19T00:30:58;3.20;;;2.35;;
59169;SDS011;52474;52.236;5.114;2022-08-19T00:33:25;2.90;;;2.28;;
59169;SDS011;52474;52.236;5.114;2022-08-19T00:35:50;3.28;;;2.60;;
59169;SDS011;52474;52.236;5.114;2022-08-19T00:38:16;4.70;;;3.90;;
59169;SDS011;52474;52.236;5.114;2022-08-19T00:40:43;5.10;;;3.80;;
59169;SDS011;52474;52.236;5.114;2022-08-19T00:43:12;5.60;;;4.10;;
59169;SDS011;52474;52.236;5.114;2022-08-19T00:45:43;7.43;;;4.28;;
59169;SDS011;52474;52.236;5.114;2022-08-19T00:48:09;6.75;;;4.55;;
59169;SDS011;52474;52.236;5.114;2022-08-19T00:50:36;6.72;;;4.47;;
59169;SDS011;52474;52.236;5.114;2022-08-19T00:53:05;5.82;;;3.92;;
59169;SDS011;52474;52.236;5.114;2022-08-19T00:55:32;5.05;;;3.95;;
59169;SDS011;52474;52.236;5.114;2022-08-19T00:58:00;9.00;;;6.60;;
59169;SDS011;52474;52.236;5.114;2022-08-19T01:00:30;9.18;;;6.47;;
59169;SDS011;52474;52.236;5.114;2022-08-19T01:02:56;7.93;;;5.93;;
59169;SDS011;52474;52.236;5.114;2022-08-19T01:05:23;5.72;;;4.70;;
59169;SDS011;52474;52.236;5.114;2022-08-19T01:07:53;4.40;;;3.15;;
59169;SDS011;52474;52.236;5.114;2022-08-19T01:10:22;3.72;;;3.10;;
59169;SDS011;52474;52.236;5.114;2022-08-19T01:12:52;4.65;;;3.00;;
59169;SDS011;52474;52.236;5.114;2022-08-19T01:15:20;4.60;;;3.60;;
59169;SDS011;52474;52.236;5.114;2022-08-19T01:17:49;6.18;;;4.10;;
59169;SDS011;52474;52.236;5.114;2022-08-19T01:20:19;4.60;;;3.55;;
59169;SDS011;52474;52.236;5.114;2022-08-19T01:22:48;5.20;;;3.90;;
59169;SDS011;52474;52.236;5.114;2022-08-19T01:25:16;5.22;;;4.28;;
59169;SDS011;52474;52.236;5.114;2022-08-19T01:27:45;6.43;;;4.55;;
59169;SDS011;52474;52.236;5.114;2022-08-19T01:30:15;7.28;;;5.72;;
59169;SDS011;52474;52.236;5.114;2022-08-19T01:32:48;8.30;;;5.28;;
59169;SDS011;52474;52.236;5.114;2022-08-19T01:35:14;5.38;;;4.53;;
59169;SDS011;52474;52.236;5.114;2022-08-19T01:40:17;6.15;;;5.13;;
59169;SDS011;52474;52.236;5.114;2022-08-19T01:42:46;7.60;;;4.53;;
59169;SDS011;52474;52.236;5.114;2022-08-19T01:47:41;6.68;;;5.00;;
59169;SDS011;52474;52.236;5.114;2022-08-19T01:50:08;6.35;;;4.50;;
59169;SDS011;52474;52.236;5.114;2022-08-19T01:52:35;5.20;;;3.58;;
59169;SDS011;52474;52.236;5.114;2022-08-19T01:55:02;2.65;;;2.45;;
59169;SDS011;52474;52.236;5.114;2022-08-19T01:57:29;3.55;;;2.60;;
59169;SDS011;52474;52.236;5.114;2022-08-19T01:59:55;3.00;;;2.70;;
59169;SDS011;52474;52.236;5.114;2022-08-19T02:02:21;3.40;;;2.63;;
59169;SDS011;52474;52.236;5.114;2022-08-19T02:04:47;5.38;;;3.72;;
59169;SDS011;52474;52.236;5.114;2022-08-19T02:07:13;11.90;;;4.22;;
59169;SDS011;52474;52.236;5.114;2022-08-19T02:09:39;5.88;;;4.43;;
59169;SDS011;52474;52.236;5.114;2022-08-19T02:12:05;4.25;;;3.30;;
59169;SDS011;52474;52.236;5.114;2022-08-19T02:14:36;4.85;;;3.03;;
59169;SDS011;52474;52.236;5.114;2022-08-19T02:17:02;3.53;;;2.73;;
59169;SDS011;52474;52.236;5.114;2022-08-19T02:19:28;5.55;;;3.20;;
59169;SDS011;52474;52.236;5.114;2022-08-19T02:21:54;2.72;;;2.40;;
59169;SDS011;52474;52.236;5.114;2022-08-19T02:24:20;3.38;;;2.83;;
59169;SDS011;52474;52.236;5.114;2022-08-19T02:26:45;3.13;;;2.60;;
59169;SDS011;52474;52.236;5.114;2022-08-19T02:29:11;3.75;;;3.08;;
59169;SDS011;52474;52.236;5.114;2022-08-19T02:31:37;3.63;;;2.70;;
59169;SDS011;52474;52.236;5.114;2022-08-19T02:34:02;3.75;;;3.28;;
59169;SDS011;52474;52.236;5.114;2022-08-19T02:36:28;5.00;;;4.20;;
59169;SDS011;52474;52.236;5.114;2022-08-19T02:38:54;5.65;;;3.78;;
59169;SDS011;52474;52.236;5.114;2022-08-19T02:41:21;7.57;;;4.78;;
59169;SDS011;52474;52.236;5.114;2022-08-19T02:43:49;7.15;;;4.43;;
59169;SDS011;52474;52.236;5.114;2022-08-19T02:46:17;6.88;;;4.35;;
59169;SDS011;52474;52.236;5.114;2022-08-19T02:48:52;9.50;;;5.22;;
59169;SDS011;52474;52.236;5.114;2022-08-19T02:51:22;6.88;;;4.85;;
59169;SDS011;52474;52.236;5.114;2022-08-19T02:53:58;6.55;;;5.03;;
59169;SDS011;52474;52.236;5.114;2022-08-19T02:56:25;6.38;;;4.63;;
59169;SDS011;52474;52.236;5.114;2022-08-19T02:58:53;8.73;;;5.18;;
59169;SDS011;52474;52.236;5.114;2022-08-19T03:01:38;4.85;;;3.63;;
59169;SDS011;52474;52.236;5.114;2022-08-19T03:04:06;3.42;;;2.80;;
59169;SDS011;52474;52.236;5.114;2022-08-19T03:06:35;5.70;;;3.90;;
59169;SDS011;52474;52.236;5.114;2022-08-19T03:09:02;4.87;;;3.70;;
59169;SDS011;52474;52.236;5.114;2022-08-19T03:11:29;5.75;;;4.40;;
59169;SDS011;52474;52.236;5.114;2022-08-19T03:13:56;5.82;;;4.40;;
59169;SDS011;52474;52.236;5.114;2022-08-19T03:16:23;9.57;;;3.60;;
59169;SDS011;52474;52.236;5.114;2022-08-19T03:18:51;4.68;;;3.60;;
59169;SDS011;52474;52.236;5.114;2022-08-19T03:21:20;5.45;;;3.70;;
59169;SDS011;52474;52.236;5.114;2022-08-19T03:23:49;4.65;;;3.55;;
59169;SDS011;52474;52.236;5.114;2022-08-19T03:26:14;8.07;;;4.60;;
59169;SDS011;52474;52.236;5.114;2022-08-19T03:28:43;6.53;;;4.18;;
59169;SDS011;52474;52.236;5.114;2022-08-19T03:31:16;7.32;;;5.20;;
59169;SDS011;52474;52.236;5.114;2022-08-19T03:33:43;8.60;;;5.35;;
59169;SDS011;52474;52.236;5.114;2022-08-19T03:36:11;7.43;;;4.90;;
59169;SDS011;52474;52.236;5.114;2022-08-19T03:38:39;7.35;;;4.53;;
59169;SDS011;52474;52.236;5.114;2022-08-19T03:41:09;5.18;;;3.33;;
59169;SDS011;52474;52.236;5.114;2022-08-19T03:43:37;4.57;;;2.80;;
59169;SDS011;52474;52.236;5.114;2022-08-19T03:46:05;4.75;;;3.13;;
59169;SDS011;52474;52.236;5.114;2022-08-19T03:48:36;6.60;;;4.47;;
59169;SDS011;52474;52.236;5.114;2022-08-19T03:51:03;7.45;;;3.97;;
59169;SDS011;52474;52.236;5.114;2022-08-19T03:53:29;9.35;;;5.78;;
59169;SDS011;52474;52.236;5.114;2022-08-19T03:55:56;9.98;;;6.00;;
59169;SDS011;52474;52.236;5.114;2022-08-19T03:58:25;11.93;;;7.30;;
59169;SDS011;52474;52.236;5.114;2022-08-19T04:00:54;10.00;;;6.40;;
59169;SDS011;52474;52.236;5.114;2022-08-19T04:03:20;11.82;;;7.88;;
59169;SDS011;52474;52.236;5.114;2022-08-19T04:05:46;11.13;;;7.20;;
59169;SDS011;52474;52.236;5.114;2022-08-19T04:08:12;15.40;;;8.55;;
59169;SDS011;52474;52.236;5.114;2022-08-19T04:10:46;13.85;;;7.85;;
59169;SDS011;52474;52.236;5.114;2022-08-19T04:13:13;12.80;;;7.35;;
59169;SDS011;52474;52.236;5.114;2022-08-19T04:15:41;17.60;;;9.90;;
59169;SDS011;52474;52.236;5.114;2022-08-19T04:18:08;16.23;;;8.75;;
59169;SDS011;52474;52.236;5.114;2022-08-19T04:20:42;12.18;;;7.32;;
59169;SDS011;52474;52.236;5.114;2022-08-19T04:23:10;11.77;;;6.85;;
59169;SDS011;52474;52.236;5.114;2022-08-19T04:25:40;15.60;;;8.15;;
59169;SDS011;52474;52.236;5.114;2022-08-19T04:28:08;16.98;;;8.80;;
59169;SDS011;52474;52.236;5.114;2022-08-19T04:30:38;16.13;;;8.17;;
59169;SDS011;52474;52.236;5.114;2022-08-19T04:33:09;18.75;;;10.68;;
59169;SDS011;52474;52.236;5.114;2022-08-19T04:35:39;16.52;;;9.52;;
59169;SDS011;52474;52.236;5.114;2022-08-19T04:38:07;15.05;;;8.32;;
59169;SDS011;52474;52.236;5.114;2022-08-19T04:40:33;18.02;;;9.32;;
59169;SDS011;52474;52.236;5.114;2022-08-19T04:43:18;18.05;;;9.55;;
59169;SDS011;52474;52.236;5.114;2022-08-19T04:45:44;22.48;;;11.95;;
59169;SDS011;52474;52.236;5.114;2022-08-19T04:48:11;23.30;;;12.75;;
59169;SDS011;52474;52.236;5.114;2022-08-19T04:50:41;27.90;;;14.05;;
59169;SDS011;52474;52.236;5.114;2022-08-19T04:53:08;31.05;;;13.77;;
59169;SDS011;52474;52.236;5.114;2022-08-19T04:55:34;21.45;;;10.82;;
59169;SDS011;52474;52.236;5.114;2022-08-19T04:58:00;17.73;;;9.50;;
59169;SDS011;52474;52.236;5.114;2022-08-19T05:00:27;23.30;;;11.75;;
59169;SDS011;52474;52.236;5.114;2022-08-19T05:02:53;34.78;;;15.00;;
59169;SDS011;52474;52.236;5.114;2022-08-19T05:05:18;30.92;;;13.60;;
59169;SDS011;52474;52.236;5.114;2022-08-19T05:07:45;21.88;;;12.23;;
59169;SDS011;52474;52.236;5.114;2022-08-19T05:10:10;31.25;;;15.57;;
59169;SDS011;52474;52.236;5.114;2022-08-19T05:12:36;33.72;;;15.10;;
59169;SDS011;52474;52.236;5.114;2022-08-19T05:15:03;32.20;;;15.02;;
59169;SDS011;52474;52.236;5.114;2022-08-19T05:17:31;27.33;;;13.00;;
59169;SDS011;52474;52.236;5.114;2022-08-19T05:19:57;26.27;;;13.57;;
59169;SDS011;52474;52.236;5.114;2022-08-19T05:22:42;35.17;;;16.25;;
59169;SDS011;52474;52.236;5.114;2022-08-19T05:25:11;34.13;;;15.38;;
59169;SDS011;52474;52.236;5.114;2022-08-19T05:27:40;35.80;;;16.92;;
59169;SDS011;52474;52.236;5.114;2022-08-19T05:30:06;36.10;;;17.63;;
59169;SDS011;52474;52.236;5.114;2022-08-19T05:32:33;39.10;;;18.30;;
59169;SDS011;52474;52.236;5.114;2022-08-19T05:34:58;41.95;;;19.10;;
59169;SDS011;52474;52.236;5.114;2022-08-19T05:37:24;41.80;;;18.67;;
59169;SDS011;52474;52.236;5.114;2022-08-19T05:39:52;43.13;;;19.63;;
59169;SDS011;52474;52.236;5.114;2022-08-19T05:42:19;40.53;;;20.33;;
59169;SDS011;52474;52.236;5.114;2022-08-19T05:44:47;39.30;;;17.23;;
59169;SDS011;52474;52.236;5.114;2022-08-19T05:47:14;41.90;;;18.70;;
59169;SDS011;52474;52.236;5.114;2022-08-19T05:49:40;42.45;;;20.25;;
59169;SDS011;52474;52.236;5.114;2022-08-19T05:52:09;45.55;;;21.30;;
59169;SDS011;52474;52.236;5.114;2022-08-19T05:54:38;57.30;;;23.58;;
59169;SDS011;52474;52.236;5.114;2022-08-19T05:59:34;64.75;;;24.20;;
59169;SDS011;52474;52.236;5.114;2022-08-19T06:02:01;60.13;;;25.05;;
59169;SDS011;52474;52.236;5.114;2022-08-19T06:04:28;65.75;;;25.73;;
59169;SDS011;52474;52.236;5.114;2022-08-19T06:06:54;66.70;;;25.83;;
59169;SDS011;52474;52.236;5.114;2022-08-19T06:09:21;78.88;;;28.80;;
59169;SDS011;52474;52.236;5.114;2022-08-19T06:11:49;81.68;;;29.95;;
59169;SDS011;52474;52.236;5.114;2022-08-19T06:14:21;84.55;;;30.92;;
59169;SDS011;52474;52.236;5.114;2022-08-19T06:16:50;83.85;;;28.33;;
59169;SDS011;52474;52.236;5.114;2022-08-19T06:19:18;90.18;;;30.33;;
59169;SDS011;52474;52.236;5.114;2022-08-19T06:21:46;82.30;;;27.55;;
59169;SDS011;52474;52.236;5.114;2022-08-19T06:24:16;93.40;;;28.60;;
59169;SDS011;52474;52.236;5.114;2022-08-19T06:26:45;84.85;;;29.42;;
59169;SDS011;52474;52.236;5.114;2022-08-19T06:29:13;79.13;;;28.58;;
59169;SDS011;52474;52.236;5.114;2022-08-19T06:31:41;79.78;;;28.48;;
59169;SDS011;52474;52.236;5.114;2022-08-19T06:34:09;73.72;;;28.00;;
59169;SDS011;52474;52.236;5.114;2022-08-19T06:36:37;76.53;;;27.95;;
59169;SDS011;52474;52.236;5.114;2022-08-19T06:39:07;78.50;;;28.23;;
59169;SDS011;52474;52.236;5.114;2022-08-19T06:41:38;84.55;;;29.10;;
59169;SDS011;52474;52.236;5.114;2022-08-19T06:44:16;73.18;;;28.08;;
59169;SDS011;52474;52.236;5.114;2022-08-19T06:46:43;82.05;;;31.75;;
59169;SDS011;52474;52.236;5.114;2022-08-19T06:49:09;80.00;;;30.20;;
59169;SDS011;52474;52.236;5.114;2022-08-19T06:51:42;82.22;;;29.80;;
59169;SDS011;52474;52.236;5.114;2022-08-19T06:54:10;77.78;;;29.33;;
59169;SDS011;52474;52.236;5.114;2022-08-19T06:56:36;71.55;;;29.38;;
59169;SDS011;52474;52.236;5.114;2022-08-19T06:59:12;70.38;;;28.83;;
59169;SDS011;52474;52.236;5.114;2022-08-19T07:01:43;74.73;;;30.47;;
59169;SDS011;52474;52.236;5.114;2022-08-19T07:04:14;71.82;;;29.80;;
59169;SDS011;52474;52.236;5.114;2022-08-19T07:06:41;69.80;;;28.48;;
59169;SDS011;52474;52.236;5.114;2022-08-19T07:09:08;71.50;;;30.10;;
59169;SDS011;52474;52.236;5.114;2022-08-19T07:11:35;76.78;;;30.10;;
59169;SDS011;52474;52.236;5.114;2022-08-19T07:14:01;69.90;;;29.98;;
59169;SDS011;52474;52.236;5.114;2022-08-19T07:16:27;79.93;;;31.50;;
59169;SDS011;52474;52.236;5.114;2022-08-19T07:18:53;77.65;;;31.50;;
59169;SDS011;52474;52.236;5.114;2022-08-19T07:21:21;78.38;;;32.72;;
59169;SDS011;52474;52.236;5.114;2022-08-19T07:23:49;72.50;;;31.08;;
59169;SDS011;52474;52.236;5.114;2022-08-19T07:26:22;76.63;;;31.55;;
59169;SDS011;52474;52.236;5.114;2022-08-19T07:28:54;80.35;;;32.05;;
59169;SDS011;52474;52.236;5.114;2022-08-19T07:31:23;74.95;;;32.60;;
59169;SDS011;52474;52.236;5.114;2022-08-19T07:33:50;75.07;;;34.53;;
59169;SDS011;52474;52.236;5.114;2022-08-19T07:36:19;73.05;;;32.22;;
59169;SDS011;52474;52.236;5.114;2022-08-19T07:38:48;73.07;;;31.83;;
59169;SDS011;52474;52.236;5.114;2022-08-19T07:41:20;70.78;;;31.02;;
59169;SDS011;52474;52.236;5.114;2022-08-19T07:43:48;66.45;;;31.23;;
59169;SDS011;52474;52.236;5.114;2022-08-19T07:46:14;60.28;;;28.75;;
59169;SDS011;52474;52.236;5.114;2022-08-19T07:48:42;68.63;;;31.73;;
59169;SDS011;52474;52.236;5.114;2022-08-19T07:51:12;66.80;;;30.67;;
59169;SDS011;52474;52.236;5.114;2022-08-19T07:53:38;60.13;;;30.05;;
59169;SDS011;52474;52.236;5.114;2022-08-19T07:56:04;59.60;;;28.60;;
59169;SDS011;52474;52.236;5.114;2022-08-19T07:58:31;51.53;;;27.15;;
59169;SDS011;52474;52.236;5.114;2022-08-19T08:01:00;58.67;;;27.63;;
59169;SDS011;52474;52.236;5.114;2022-08-19T08:03:27;58.65;;;29.73;;
59169;SDS011;52474;52.236;5.114;2022-08-19T08:06:13;52.45;;;28.30;;
59169;SDS011;52474;52.236;5.114;2022-08-19T08:08:59;52.38;;;27.85;;
59169;SDS011;52474;52.236;5.114;2022-08-19T08:11:42;56.00;;;29.85;;
59169;SDS011;52474;52.236;5.114;2022-08-19T08:14:16;55.58;;;29.75;;
59169;SDS011;52474;52.236;5.114;2022-08-19T08:16:43;56.03;;;27.92;;
59169;SDS011;52474;52.236;5.114;2022-08-19T08:19:10;56.95;;;29.35;;
59169;SDS011;52474;52.236;5.114;2022-08-19T08:21:37;47.88;;;26.15;;
59169;SDS011;52474;52.236;5.114;2022-08-19T08:24:03;49.35;;;26.77;;
59169;SDS011;52474;52.236;5.114;2022-08-19T08:26:29;49.95;;;27.23;;
59169;SDS011;52474;52.236;5.114;2022-08-19T08:28:55;49.28;;;27.65;;
59169;SDS011;52474;52.236;5.114;2022-08-19T08:31:21;49.63;;;27.30;;
59169;SDS011;52474;52.236;5.114;2022-08-19T08:33:47;48.47;;;26.77;;
59169;SDS011;52474;52.236;5.114;2022-08-19T08:36:13;51.13;;;27.25;;
59169;SDS011;52474;52.236;5.114;2022-08-19T08:38:39;53.05;;;28.33;;
59169;SDS011;52474;52.236;5.114;2022-08-19T08:41:22;55.13;;;28.63;;
59169;SDS011;52474;52.236;5.114;2022-08-19T08:44:16;53.13;;;31.38;;
59169;SDS011;52474;52.236;5.114;2022-08-19T08:46:48;63.38;;;32.67;;
59169;SDS011;52474;52.236;5.114;2022-08-19T08:49:36;63.50;;;32.42;;
59169;SDS011;52474;52.236;5.114;2022-08-19T08:52:07;60.70;;;33.13;;
59169;SDS011;52474;52.236;5.114;2022-08-19T08:54:39;62.47;;;35.03;;
59169;SDS011;52474;52.236;5.114;2022-08-19T08:57:14;71.07;;;32.83;;
59169;SDS011;52474;52.236;5.114;2022-08-19T08:59:45;62.85;;;32.10;;
59169;SDS011;52474;52.236;5.114;2022-08-19T09:02:16;59.72;;;33.10;;
59169;SDS011;52474;52.236;5.114;2022-08-19T09:04:42;58.40;;;32.50;;
59169;SDS011;52474;52.236;5.114;2022-08-19T09:10:22;49.75;;;29.85;;
59169;SDS011;52474;52.236;5.114;2022-08-19T09:15:56;45.53;;;28.42;;
59169;SDS011;52474;52.236;5.114;2022-08-19T09:18:38;44.25;;;28.58;;
59169;SDS011;52474;52.236;5.114;2022-08-19T09:21:06;45.28;;;27.60;;
59169;SDS011;52474;52.236;5.114;2022-08-19T09:23:34;44.53;;;27.95;;
59169;SDS011;52474;52.236;5.114;2022-08-19T09:26:06;42.08;;;27.00;;
59169;SDS011;52474;52.236;5.114;2022-08-19T09:28:34;39.35;;;27.17;;
59169;SDS011;52474;52.236;5.114;2022-08-19T09:31:00;39.20;;;25.92;;
59169;SDS011;52474;52.236;5.114;2022-08-19T09:33:26;43.33;;;27.85;;
59169;SDS011;52474;52.236;5.114;2022-08-19T09:36:01;37.75;;;25.45;;
59169;SDS011;52474;52.236;5.114;2022-08-19T09:38:34;36.47;;;24.73;;
59169;SDS011;52474;52.236;5.114;2022-08-19T09:41:02;33.47;;;25.08;;
59169;SDS011;52474;52.236;5.114;2022-08-19T09:43:39;37.05;;;25.10;;
59169;SDS011;52474;52.236;5.114;2022-08-19T09:46:05;34.60;;;23.27;;
59169;SDS011;52474;52.236;5.114;2022-08-19T09:48:37;30.35;;;22.40;;
59169;SDS011;52474;52.236;5.114;2022-08-19T09:51:05;31.02;;;23.67;;
59169;SDS011;52474;52.236;5.114;2022-08-19T09:53:36;35.38;;;24.33;;
59169;SDS011;52474;52.236;5.114;2022-08-19T09:56:03;34.50;;;23.42;;
59169;SDS011;52474;52.236;5.114;2022-08-19T09:58:31;31.38;;;25.55;;
59169;SDS011;52474;52.236;5.114;2022-08-19T10:00:57;30.30;;;25.23;;
59169;SDS011;52474;52.236;5.114;2022-08-19T10:03:26;31.75;;;21.70;;
59169;SDS011;52474;52.236;5.114;2022-08-19T10:05:53;28.23;;;19.42;;
59169;SDS011;52474;52.236;5.114;2022-08-19T10:08:21;27.85;;;19.80;;
59169;SDS011;52474;52.236;5.114;2022-08-19T10:10:49;32.22;;;23.45;;
59169;SDS011;52474;52.236;5.114;2022-08-19T10:13:17;27.75;;;21.27;;
59169;SDS011;52474;52.236;5.114;2022-08-19T10:15:50;24.55;;;18.63;;
59169;SDS011;52474;52.236;5.114;2022-08-19T10:18:19;28.55;;;21.17;;
59169;SDS011;52474;52.236;5.114;2022-08-19T10:20:46;24.20;;;19.98;;
59169;SDS011;52474;52.236;5.114;2022-08-19T10:23:14;21.27;;;16.85;;
59169;SDS011;52474;52.236;5.114;2022-08-19T10:25:40;24.45;;;20.45;;
59169;SDS011;52474;52.236;5.114;2022-08-19T10:28:07;21.00;;;16.25;;
59169;SDS011;52474;52.236;5.114;2022-08-19T10:30:33;18.70;;;15.23;;
59169;SDS011;52474;52.236;5.114;2022-08-19T10:33:00;23.38;;;17.05;;
59169;SDS011;52474;52.236;5.114;2022-08-19T10:35:26;20.05;;;16.42;;
59169;SDS011;52474;52.236;5.114;2022-08-19T10:37:53;20.23;;;16.48;;
59169;SDS011;52474;52.236;5.114;2022-08-19T10:40:19;18.38;;;16.08;;
59169;SDS011;52474;52.236;5.114;2022-08-19T10:42:44;17.13;;;14.98;;
59169;SDS011;52474;52.236;5.114;2022-08-19T10:45:10;17.90;;;15.27;;
59169;SDS011;52474;52.236;5.114;2022-08-19T10:47:36;19.73;;;16.25;;
59169;SDS011;52474;52.236;5.114;2022-08-19T10:50:05;20.08;;;14.85;;
59169;SDS011;52474;52.236;5.114;2022-08-19T10:52:49;17.08;;;13.60;;
59169;SDS011;52474;52.236;5.114;2022-08-19T10:55:16;18.92;;;12.15;;
59169;SDS011;52474;52.236;5.114;2022-08-19T10:58:11;16.85;;;12.10;;
59169;SDS011;52474;52.236;5.114;2022-08-19T11:00:38;15.15;;;11.90;;
59169;SDS011;52474;52.236;5.114;2022-08-19T11:03:05;16.35;;;11.85;;
59169;SDS011;52474;52.236;5.114;2022-08-19T11:05:31;16.80;;;11.18;;
59169;SDS011;52474;52.236;5.114;2022-08-19T11:07:57;16.77;;;12.30;;
59169;SDS011;52474;52.236;5.114;2022-08-19T11:10:23;14.88;;;11.75;;
59169;SDS011;52474;52.236;5.114;2022-08-19T11:12:49;16.65;;;12.43;;
59169;SDS011;52474;52.236;5.114;2022-08-19T11:15:18;15.00;;;11.98;;
59169;SDS011;52474;52.236;5.114;2022-08-19T11:17:44;15.60;;;13.13;;
59169;SDS011;52474;52.236;5.114;2022-08-19T11:20:13;18.35;;;14.68;;
59169;SDS011;52474;52.236;5.114;2022-08-19T11:22:40;20.70;;;14.35;;
59169;SDS011;52474;52.236;5.114;2022-08-19T11:25:07;16.67;;;13.07;;
59169;SDS011;52474;52.236;5.114;2022-08-19T11:27:37;17.00;;;13.10;;
59169;SDS011;52474;52.236;5.114;2022-08-19T11:30:11;17.60;;;12.85;;
59169;SDS011;52474;52.236;5.114;2022-08-19T11:32:38;17.40;;;11.82;;
59169;SDS011;52474;52.236;5.114;2022-08-19T11:35:07;18.85;;;13.32;;
59169;SDS011;52474;52.236;5.114;2022-08-19T11:37:33;15.15;;;11.55;;
59169;SDS011;52474;52.236;5.114;2022-08-19T11:40:04;15.77;;;11.68;;
59169;SDS011;52474;52.236;5.114;2022-08-19T11:42:31;17.20;;;12.02;;
59169;SDS011;52474;52.236;5.114;2022-08-19T11:45:15;19.80;;;13.70;;
59169;SDS011;52474;52.236;5.114;2022-08-19T11:47:41;27.75;;;18.98;;
59169;SDS011;52474;52.236;5.114;2022-08-19T11:50:07;26.45;;;19.17;;
59169;SDS011;52474;52.236;5.114;2022-08-19T11:52:33;28.80;;;19.58;;
59169;SDS011;52474;52.236;5.114;2022-08-19T11:54:58;29.80;;;21.63;;
59169;SDS011;52474;52.236;5.114;2022-08-19T11:57:24;26.33;;;20.77;;
59169;SDS011;52474;52.236;5.114;2022-08-19T11:59:52;27.90;;;21.25;;
59169;SDS011;52474;52.236;5.114;2022-08-19T12:02:18;26.48;;;20.85;;
59169;SDS011;52474;52.236;5.114;2022-08-19T12:04:44;26.20;;;20.33;;
59169;SDS011;52474;52.236;5.114;2022-08-19T12:07:10;30.05;;;20.80;;
59169;SDS011;52474;52.236;5.114;2022-08-19T12:09:36;24.38;;;17.65;;
59169;SDS011;52474;52.236;5.114;2022-08-19T12:12:01;21.40;;;14.88;;
59169;SDS011;52474;52.236;5.114;2022-08-19T12:14:28;20.60;;;14.77;;
59169;SDS011;52474;52.236;5.114;2022-08-19T12:16:57;21.05;;;15.18;;
59169;SDS011;52474;52.236;5.114;2022-08-19T12:19:22;19.23;;;13.50;;
59169;SDS011;52474;52.236;5.114;2022-08-19T12:21:50;18.65;;;12.13;;
59169;SDS011;52474;52.236;5.114;2022-08-19T12:24:16;15.32;;;10.40;;
59169;SDS011;52474;52.236;5.114;2022-08-19T12:26:48;12.02;;;9.48;;
59169;SDS011;52474;52.236;5.114;2022-08-19T12:29:14;14.57;;;10.68;;
59169;SDS011;52474;52.236;5.114;2022-08-19T12:31:40;14.85;;;10.27;;
59169;SDS011;52474;52.236;5.114;2022-08-19T12:34:05;18.35;;;11.07;;
59169;SDS011;52474;52.236;5.114;2022-08-19T12:36:31;16.75;;;11.77;;
59169;SDS011;52474;52.236;5.114;2022-08-19T12:38:57;14.90;;;9.73;;
59169;SDS011;52474;52.236;5.114;2022-08-19T12:41:24;17.10;;;10.65;;
59169;SDS011;52474;52.236;5.114;2022-08-19T12:43:51;15.88;;;11.27;;
59169;SDS011;52474;52.236;5.114;2022-08-19T12:46:17;14.43;;;10.27;;
59169;SDS011;52474;52.236;5.114;2022-08-19T12:48:44;16.17;;;10.20;;
59169;SDS011;52474;52.236;5.114;2022-08-19T12:51:13;16.65;;;11.57;;
59169;SDS011;52474;52.236;5.114;2022-08-19T12:53:41;15.48;;;10.32;;
59169;SDS011;52474;52.236;5.114;2022-08-19T12:56:07;14.65;;;11.20;;
59169;SDS011;52474;52.236;5.114;2022-08-19T12:58:35;13.82;;;9.68;;
59169;SDS011;52474;52.236;5.114;2022-08-19T13:03:54;13.82;;;10.95;;
59169;SDS011;52474;52.236;5.114;2022-08-19T13:06:20;17.05;;;10.55;;
59169;SDS011;52474;52.236;5.114;2022-08-19T13:08:46;16.85;;;10.07;;
59169;SDS011;52474;52.236;5.114;2022-08-19T13:11:17;15.73;;;10.23;;
59169;SDS011;52474;52.236;5.114;2022-08-19T13:13:46;15.35;;;9.75;;
59169;SDS011;52474;52.236;5.114;2022-08-19T13:16:12;13.38;;;8.38;;
59169;SDS011;52474;52.236;5.114;2022-08-19T13:18:39;12.73;;;8.30;;
59169;SDS011;52474;52.236;5.114;2022-08-19T13:21:06;11.75;;;8.13;;
59169;SDS011;52474;52.236;5.114;2022-08-19T13:23:33;14.00;;;8.75;;
59169;SDS011;52474;52.236;5.114;2022-08-19T13:26:04;13.57;;;8.85;;
59169;SDS011;52474;52.236;5.114;2022-08-19T13:28:31;8.68;;;7.65;;
59169;SDS011;52474;52.236;5.114;2022-08-19T13:31:20;11.23;;;7.47;;
59169;SDS011;52474;52.236;5.114;2022-08-19T13:34:13;8.77;;;6.50;;
59169;SDS011;52474;52.236;5.114;2022-08-19T13:36:40;7.85;;;5.70;;
59169;SDS011;52474;52.236;5.114;2022-08-19T13:39:06;9.65;;;5.20;;
59169;SDS011;52474;52.236;5.114;2022-08-19T13:41:33;6.70;;;5.10;;
59169;SDS011;52474;52.236;5.114;2022-08-19T13:43:59;7.15;;;5.38;;
59169;SDS011;52474;52.236;5.114;2022-08-19T13:46:26;6.78;;;5.53;;
59169;SDS011;52474;52.236;5.114;2022-08-19T13:48:55;6.78;;;5.13;;
59169;SDS011;52474;52.236;5.114;2022-08-19T13:51:22;6.53;;;5.28;;
59169;SDS011;52474;52.236;5.114;2022-08-19T13:53:48;5.80;;;5.00;;
59169;SDS011;52474;52.236;5.114;2022-08-19T13:56:15;6.07;;;5.03;;
59169;SDS011;52474;52.236;5.114;2022-08-19T13:58:42;4.88;;;3.70;;
59169;SDS011;52474;52.236;5.114;2022-08-19T14:01:09;4.15;;;3.17;;
59169;SDS011;52474;52.236;5.114;2022-08-19T14:03:35;6.13;;;3.92;;
59169;SDS011;52474;52.236;5.114;2022-08-19T14:06:02;5.35;;;3.78;;
59169;SDS011;52474;52.236;5.114;2022-08-19T14:08:28;3.70;;;3.22;;
59169;SDS011;52474;52.236;5.114;2022-08-19T14:10:57;4.55;;;3.17;;
59169;SDS011;52474;52.236;5.114;2022-08-19T14:13:23;6.47;;;3.78;;
59169;SDS011;52474;52.236;5.114;2022-08-19T14:15:49;4.03;;;3.15;;
59169;SDS011;52474;52.236;5.114;2022-08-19T14:18:16;5.68;;;3.80;;
59169;SDS011;52474;52.236;5.114;2022-08-19T14:20:43;5.40;;;3.88;;
59169;SDS011;52474;52.236;5.114;2022-08-19T14:23:09;4.53;;;3.30;;
59169;SDS011;52474;52.236;5.114;2022-08-19T14:25:37;6.60;;;3.28;;
59169;SDS011;52474;52.236;5.114;2022-08-19T14:28:03;4.22;;;2.80;;
59169;SDS011;52474;52.236;5.114;2022-08-19T14:30:32;5.80;;;2.95;;
59169;SDS011;52474;52.236;5.114;2022-08-19T14:33:00;4.60;;;3.35;;
59169;SDS011;52474;52.236;5.114;2022-08-19T14:35:27;4.88;;;3.00;;
59169;SDS011;52474;52.236;5.114;2022-08-19T14:37:54;4.25;;;2.90;;
59169;SDS011;52474;52.236;5.114;2022-08-19T14:40:22;4.35;;;3.03;;
59169;SDS011;52474;52.236;5.114;2022-08-19T14:42:53;4.45;;;3.15;;
59169;SDS011;52474;52.236;5.114;2022-08-19T14:45:25;3.97;;;2.92;;
59169;SDS011;52474;52.236;5.114;2022-08-19T14:47:52;4.03;;;2.97;;
59169;SDS011;52474;52.236;5.114;2022-08-19T14:50:18;5.85;;;3.17;;
59169;SDS011;52474;52.236;5.114;2022-08-19T14:52:45;4.68;;;2.97;;
59169;SDS011;52474;52.236;5.114;2022-08-19T14:55:16;4.50;;;3.00;;